sensor_id;sensor_type;location;lat;lon;timestamp;pressure;altitude;pressure_sealevel;temperature;humidity
4570;BME280;2297;51.442;6.996;2023-05-20T00:00:56;101031.50;;;17.07;32.52
4570;BME280;2297;51.442;6.996;2023-05-20T00:03:23;101026.41;;;17.01;32.54
4570;BME280;2297;51.442;6.996;2023-05-20T00:05:50;101022.91;;;16.99;32.64
4570;BME280;2297;51.442;6.996;2023-05-20T00:08:17;101022.09;;;16.97;32.71
4570;BME280;2297;51.442;6.996;2023-05-20T00:10:44;101023.13;;;16.93;32.80
4570;BME280;2297;51.442;6.996;2023-05-20T00:13:11;101022.31;;;16.91;32.84
4570;BME280;2297;51.442;6.996;2023-05-20T00:15:39;101026.09;;;16.85;32.89
4570;BME280;2297;51.442;6.996;2023-05-20T00:18:06;101018.03;;;16.87;32.76
4570;BME280;2297;51.442;6.996;2023-05-20T00:20:33;101021.72;;;16.83;32.94
4570;BME280;2297;51.442;6.996;2023-05-20T00:23:00;101027.13;;;16.79;32.94
4570;BME280;2297;51.442;6.996;2023-05-20T00:25:26;101019.31;;;16.75;33.21
4570;BME280;2297;51.442;6.996;2023-05-20T00:27:55;101022.13;;;16.70;33.28
4570;BME280;2297;51.442;6.996;2023-05-20T00:30:21;101021.31;;;16.68;33.17
4570;BME280;2297;51.442;6.996;2023-05-20T00:32:49;101022.56;;;16.58;33.82
4570;BME280;2297;51.442;6.996;2023-05-20T00:35:16;101025.28;;;16.56;33.76
4570;BME280;2297;51.442;6.996;2023-05-20T00:37:43;101028.22;;;16.49;33.90
4570;BME280;2297;51.442;6.996;2023-05-20T00:40:10;101018.41;;;16.49;33.98
4570;BME280;2297;51.442;6.996;2023-05-20T00:42:37;101026.59;;;16.44;33.96
4570;BME280;2297;51.442;6.996;2023-05-20T00:45:04;101025.97;;;16.36;34.01
4570;BME280;2297;51.442;6.996;2023-05-20T00:47:32;101025.16;;;16.34;33.98
4570;BME280;2297;51.442;6.996;2023-05-20T00:50:02;101023.50;;;16.30;34.25
4570;BME280;2297;51.442;6.996;2023-05-20T00:52:30;101027.94;;;16.31;34.14
4570;BME280;2297;51.442;6.996;2023-05-20T00:54:57;101022.53;;;16.33;34.22
4570;BME280;2297;51.442;6.996;2023-05-20T00:57:24;101014.69;;;16.28;34.24
4570;BME280;2297;51.442;6.996;2023-05-20T00:59:50;101016.66;;;16.23;34.56
4570;BME280;2297;51.442;6.996;2023-05-20T01:02:18;101013.28;;;16.18;34.80
4570;BME280;2297;51.442;6.996;2023-05-20T01:04:45;101014.03;;;16.21;34.78
4570;BME280;2297;51.442;6.996;2023-05-20T01:07:15;101006.09;;;16.20;34.88
4570;BME280;2297;51.442;6.996;2023-05-20T01:09:42;101002.63;;;16.18;34.84
4570;BME280;2297;51.442;6.996;2023-05-20T01:12:12;101002.81;;;16.11;34.77
4570;BME280;2297;51.442;6.996;2023-05-20T01:14:47;101013.47;;;16.11;34.80
4570;BME280;2297;51.442;6.996;2023-05-20T01:17:14;101011.72;;;16.10;35.17
4570;BME280;2297;51.442;6.996;2023-05-20T01:19:43;101011.72;;;16.10;35.10
4570;BME280;2297;51.442;6.996;2023-05-20T01:22:13;101013.47;;;16.11;35.05
4570;BME280;2297;51.442;6.996;2023-05-20T01:24:43;101015.28;;;16.09;35.06
4570;BME280;2297;51.442;6.996;2023-05-20T01:27:10;101009.78;;;16.16;35.06
4570;BME280;2297;51.442;6.996;2023-05-20T01:29:38;101007.22;;;16.12;35.17
4570;BME280;2297;51.442;6.996;2023-05-20T01:32:07;101006.75;;;16.00;35.36
4570;BME280;2297;51.442;6.996;2023-05-20T01:34:36;101009.53;;;15.95;35.47
4570;BME280;2297;51.442;6.996;2023-05-20T01:37:06;101002.53;;;15.91;35.57
4570;BME280;2297;51.442;6.996;2023-05-20T01:39:35;101003.50;;;15.90;35.67
4570;BME280;2297;51.442;6.996;2023-05-20T01:42:06;101001.63;;;15.92;35.86
4570;BME280;2297;51.442;6.996;2023-05-20T01:44:33;101007.06;;;15.89;35.66
4570;BME280;2297;51.442;6.996;2023-05-20T01:47:00;100999.06;;;15.89;35.71
4570;BME280;2297;51.442;6.996;2023-05-20T01:49:27;101004.25;;;15.93;35.91
4570;BME280;2297;51.442;6.996;2023-05-20T01:51:54;100997.22;;;15.91;35.98
4570;BME280;2297;51.442;6.996;2023-05-20T01:54:20;100997.03;;;15.97;35.86
4570;BME280;2297;51.442;6.996;2023-05-20T01:56:48;100992.72;;;15.93;36.05
4570;BME280;2297;51.442;6.996;2023-05-20T01:59:16;100997.28;;;15.89;36.08
4570;BME280;2297;51.442;6.996;2023-05-20T02:01:43;100994.66;;;15.88;35.98
4570;BME280;2297;51.442;6.996;2023-05-20T02:04:10;100998.16;;;15.90;35.93
4570;BME280;2297;51.442;6.996;2023-05-20T02:06:37;100992.84;;;15.88;36.23
4570;BME280;2297;51.442;6.996;2023-05-20T02:09:04;101000.19;;;15.82;36.14
4570;BME280;2297;51.442;6.996;2023-05-20T02:11:30;100997.50;;;15.82;36.09
4570;BME280;2297;51.442;6.996;2023-05-20T02:13:57;100995.06;;;15.75;36.16
4570;BME280;2297;51.442;6.996;2023-05-20T02:16:25;100988.84;;;15.75;36.17
4570;BME280;2297;51.442;6.996;2023-05-20T02:18:51;101002.16;;;15.76;36.25
4570;BME280;2297;51.442;6.996;2023-05-20T02:21:18;101003.84;;;15.77;36.07
4570;BME280;2297;51.442;6.996;2023-05-20T02:23:44;101005.72;;;15.75;36.13
4570;BME280;2297;51.442;6.996;2023-05-20T02:26:11;101003.13;;;15.72;36.48
4570;BME280;2297;51.442;6.996;2023-05-20T02:28:38;100997.97;;;15.68;36.56
4570;BME280;2297;51.442;6.996;2023-05-20T02:31:09;101002.47;;;15.66;36.52
4570;BME280;2297;51.442;6.996;2023-05-20T02:33:37;101003.47;;;15.61;36.79
4570;BME280;2297;51.442;6.996;2023-05-20T02:36:03;100999.94;;;15.61;36.65
4570;BME280;2297;51.442;6.996;2023-05-20T02:38:30;100995.50;;;15.61;36.90
4570;BME280;2297;51.442;6.996;2023-05-20T02:40:57;100996.44;;;15.59;36.65
4570;BME280;2297;51.442;6.996;2023-05-20T02:43:24;100999.13;;;15.59;36.87
4570;BME280;2297;51.442;6.996;2023-05-20T02:45:51;100994.69;;;15.59;36.70
4570;BME280;2297;51.442;6.996;2023-05-20T02:48:17;100991.28;;;15.54;36.68
4570;BME280;2297;51.442;6.996;2023-05-20T02:50:45;100993.06;;;15.54;36.82
4570;BME280;2297;51.442;6.996;2023-05-20T02:53:12;100982.50;;;15.51;36.77
4570;BME280;2297;51.442;6.996;2023-05-20T02:55:39;100985.19;;;15.51;36.81
4570;BME280;2297;51.442;6.996;2023-05-20T02:58:06;100987.06;;;15.47;36.81
4570;BME280;2297;51.442;6.996;2023-05-20T03:00:32;100986.31;;;15.42;37.05
4570;BME280;2297;51.442;6.996;2023-05-20T03:03:04;100987.22;;;15.42;37.05
4570;BME280;2297;51.442;6.996;2023-05-20T03:05:31;100989.13;;;15.37;37.13
4570;BME280;2297;51.442;6.996;2023-05-20T03:08:03;100988.22;;;15.38;36.87
4570;BME280;2297;51.442;6.996;2023-05-20T03:10:30;100983.13;;;15.30;37.39
4570;BME280;2297;51.442;6.996;2023-05-20T03:12:56;100980.59;;;15.26;37.46
4570;BME280;2297;51.442;6.996;2023-05-20T03:15:23;100993.19;;;15.21;37.63
4570;BME280;2297;51.442;6.996;2023-05-20T03:17:50;100989.78;;;15.16;37.64
4570;BME280;2297;51.442;6.996;2023-05-20T03:20:17;100988.63;;;14.93;37.94
4570;BME280;2297;51.442;6.996;2023-05-20T03:22:44;100986.94;;;14.89;37.96
4570;BME280;2297;51.442;6.996;2023-05-20T03:25:12;100989.75;;;14.84;38.17
4570;BME280;2297;51.442;6.996;2023-05-20T03:27:39;100991.75;;;14.76;38.60
4570;BME280;2297;51.442;6.996;2023-05-20T03:30:07;100990.81;;;14.78;38.63
4570;BME280;2297;51.442;6.996;2023-05-20T03:32:34;100985.00;;;14.64;39.04
4570;BME280;2297;51.442;6.996;2023-05-20T03:35:01;100978.94;;;14.59;39.01
4570;BME280;2297;51.442;6.996;2023-05-20T03:37:28;100974.47;;;14.59;39.11
4570;BME280;2297;51.442;6.996;2023-05-20T03:39:54;100971.75;;;14.61;39.14
4570;BME280;2297;51.442;6.996;2023-05-20T03:42:22;100969.28;;;14.55;39.34
4570;BME280;2297;51.442;6.996;2023-05-20T03:44:49;100972.19;;;14.45;39.28
4570;BME280;2297;51.442;6.996;2023-05-20T03:47:16;100966.03;;;14.43;39.49
4570;BME280;2297;51.442;6.996;2023-05-20T03:49:42;100959.97;;;14.38;39.55
4570;BME280;2297;51.442;6.996;2023-05-20T03:52:09;100965.28;;;14.38;39.50
4570;BME280;2297;51.442;6.996;2023-05-20T03:54:35;100957.31;;;14.40;39.78
4570;BME280;2297;51.442;6.996;2023-05-20T03:57:02;100958.16;;;14.40;39.80
4570;BME280;2297;51.442;6.996;2023-05-20T03:59:30;100961.63;;;14.42;39.81
4570;BME280;2297;51.442;6.996;2023-05-20T04:01:57;100965.38;;;14.35;39.87
4570;BME280;2297;51.442;6.996;2023-05-20T04:04:23;100966.34;;;14.33;39.88
4570;BME280;2297;51.442;6.996;2023-05-20T04:06:50;100960.16;;;14.32;39.93
4570;BME280;2297;51.442;6.996;2023-05-20T04:09:16;100951.19;;;14.36;40.20
4570;BME280;2297;51.442;6.996;2023-05-20T04:11:43;100959.25;;;14.32;40.17
4570;BME280;2297;51.442;6.996;2023-05-20T04:14:10;100962.06;;;14.27;40.14
4570;BME280;2297;51.442;6.996;2023-05-20T04:16:38;100969.13;;;14.28;40.35
4570;BME280;2297;51.442;6.996;2023-05-20T04:19:05;100973.34;;;14.35;40.21
4570;BME280;2297;51.442;6.996;2023-05-20T04:21:31;100968.16;;;14.30;40.40
4570;BME280;2297;51.442;6.996;2023-05-20T04:23:58;100967.19;;;14.33;40.28
4570;BME280;2297;51.442;6.996;2023-05-20T04:26:25;100976.09;;;14.32;40.35
4570;BME280;2297;51.442;6.996;2023-05-20T04:28:51;100971.72;;;14.29;40.49
4570;BME280;2297;51.442;6.996;2023-05-20T04:31:18;100972.63;;;14.28;40.71
4570;BME280;2297;51.442;6.996;2023-05-20T04:33:46;100975.91;;;14.38;40.42
4570;BME280;2297;51.442;6.996;2023-05-20T04:36:14;100981.22;;;14.38;40.66
4570;BME280;2297;51.442;6.996;2023-05-20T04:38:41;100968.63;;;14.46;40.57
4570;BME280;2297;51.442;6.996;2023-05-20T04:41:08;100967.78;;;14.44;40.52
4570;BME280;2297;51.442;6.996;2023-05-20T04:43:35;100972.19;;;14.45;40.79
4570;BME280;2297;51.442;6.996;2023-05-20T04:46:04;100972.09;;;14.49;40.92
4570;BME280;2297;51.442;6.996;2023-05-20T04:48:31;100973.84;;;14.50;41.08
4570;BME280;2297;51.442;6.996;2023-05-20T04:50:59;100984.34;;;14.54;40.84
4570;BME280;2297;51.442;6.996;2023-05-20T04:53:26;100980.69;;;14.60;40.58
4570;BME280;2297;51.442;6.996;2023-05-20T04:55:55;100977.19;;;14.58;40.58
4570;BME280;2297;51.442;6.996;2023-05-20T04:58:22;100974.53;;;14.58;40.99
4570;BME280;2297;51.442;6.996;2023-05-20T05:00:50;100981.69;;;14.54;41.24
4570;BME280;2297;51.442;6.996;2023-05-20T05:03:17;100979.31;;;14.43;41.09
4570;BME280;2297;51.442;6.996;2023-05-20T05:05:44;100975.66;;;14.47;41.48
4570;BME280;2297;51.442;6.996;2023-05-20T05:08:12;100974.72;;;14.50;41.37
4570;BME280;2297;51.442;6.996;2023-05-20T05:10:39;100979.19;;;14.50;41.21
4570;BME280;2297;51.442;6.996;2023-05-20T05:13:05;100973.84;;;14.50;41.30
4570;BME280;2297;51.442;6.996;2023-05-20T05:15:32;100971.19;;;14.50;41.42
4570;BME280;2297;51.442;6.996;2023-05-20T05:17:58;100963.31;;;14.46;41.63
4570;BME280;2297;51.442;6.996;2023-05-20T05:20:25;100968.38;;;14.56;41.27
4570;BME280;2297;51.442;6.996;2023-05-20T05:22:52;100957.75;;;14.56;41.53
4570;BME280;2297;51.442;6.996;2023-05-20T05:25:20;100963.94;;;14.56;41.84
4570;BME280;2297;51.442;6.996;2023-05-20T05:27:46;100953.31;;;14.56;41.77
4570;BME280;2297;51.442;6.996;2023-05-20T05:30:14;100958.56;;;14.58;41.46
4570;BME280;2297;51.442;6.996;2023-05-20T05:32:41;100959.38;;;14.61;41.65
4570;BME280;2297;51.442;6.996;2023-05-20T05:35:08;100959.31;;;14.63;41.55
4570;BME280;2297;51.442;6.996;2023-05-20T05:37:35;100954.84;;;14.65;41.36
4570;BME280;2297;51.442;6.996;2023-05-20T05:40:03;100955.66;;;14.67;41.79
4570;BME280;2297;51.442;6.996;2023-05-20T05:42:31;100958.97;;;14.75;41.61
4570;BME280;2297;51.442;6.996;2023-05-20T05:44:57;100955.41;;;14.76;41.72
4570;BME280;2297;51.442;6.996;2023-05-20T05:47:24;100955.44;;;14.75;41.73
4570;BME280;2297;51.442;6.996;2023-05-20T05:49:55;100948.44;;;14.72;41.84
4570;BME280;2297;51.442;6.996;2023-05-20T05:52:22;100954.69;;;14.70;41.65
4570;BME280;2297;51.442;6.996;2023-05-20T05:54:49;100948.78;;;14.60;42.01
4570;BME280;2297;51.442;6.996;2023-05-20T05:57:15;100952.09;;;14.68;41.72
4570;BME280;2297;51.442;6.996;2023-05-20T05:59:43;100957.06;;;14.80;41.58
4570;BME280;2297;51.442;6.996;2023-05-20T06:02:10;100948.34;;;14.75;41.89
4570;BME280;2297;51.442;6.996;2023-05-20T06:04:38;100951.56;;;14.87;41.97
4570;BME280;2297;51.442;6.996;2023-05-20T06:07:05;100949.91;;;14.83;41.89
4570;BME280;2297;51.442;6.996;2023-05-20T06:09:31;100947.81;;;14.94;41.79
4570;BME280;2297;51.442;6.996;2023-05-20T06:11:58;100953.06;;;14.97;41.53
4570;BME280;2297;51.442;6.996;2023-05-20T06:14:25;100945.56;;;15.10;41.34
4570;BME280;2297;51.442;6.996;2023-05-20T06:16:53;100945.13;;;14.95;41.59
4570;BME280;2297;51.442;6.996;2023-05-20T06:19:19;100953.13;;;14.94;41.39
4570;BME280;2297;51.442;6.996;2023-05-20T06:21:46;100935.25;;;14.99;41.53
4570;BME280;2297;51.442;6.996;2023-05-20T06:24:12;100934.94;;;15.11;41.52
4570;BME280;2297;51.442;6.996;2023-05-20T06:26:40;100933.81;;;15.19;41.60
4570;BME280;2297;51.442;6.996;2023-05-20T06:29:06;100927.38;;;15.26;41.02
4570;BME280;2297;51.442;6.996;2023-05-20T06:31:33;100932.34;;;15.38;41.18
4570;BME280;2297;51.442;6.996;2023-05-20T06:34:01;100924.78;;;15.53;40.90
4570;BME280;2297;51.442;6.996;2023-05-20T06:36:28;100928.25;;;15.55;40.88
4570;BME280;2297;51.442;6.996;2023-05-20T06:38:55;100933.44;;;15.59;40.66
4570;BME280;2297;51.442;6.996;2023-05-20T06:41:21;100919.06;;;15.65;40.99
4570;BME280;2297;51.442;6.996;2023-05-20T06:43:48;100934.91;;;15.41;40.95
4570;BME280;2297;51.442;6.996;2023-05-20T06:46:15;100917.09;;;15.43;41.06
4570;BME280;2297;51.442;6.996;2023-05-20T06:48:41;100914.38;;;15.45;41.02
4570;BME280;2297;51.442;6.996;2023-05-20T06:51:09;100918.00;;;15.42;40.99
4570;BME280;2297;51.442;6.996;2023-05-20T06:53:36;100926.50;;;15.54;40.97
4570;BME280;2297;51.442;6.996;2023-05-20T06:56:03;100917.63;;;15.55;41.06
4570;BME280;2297;51.442;6.996;2023-05-20T06:58:30;100926.13;;;15.66;40.74
4570;BME280;2297;51.442;6.996;2023-05-20T07:00:57;100925.25;;;15.66;40.86
4570;BME280;2297;51.442;6.996;2023-05-20T07:03:23;100918.66;;;15.77;40.79
4570;BME280;2297;51.442;6.996;2023-05-20T07:05:50;100920.50;;;15.75;40.57
4570;BME280;2297;51.442;6.996;2023-05-20T07:08:18;100918.34;;;15.87;40.49
4570;BME280;2297;51.442;6.996;2023-05-20T07:10:45;100919.06;;;15.92;40.23
4570;BME280;2297;51.442;6.996;2023-05-20T07:13:11;100916.34;;;15.93;40.14
4570;BME280;2297;51.442;6.996;2023-05-20T07:15:38;100912.09;;;16.15;39.95
4570;BME280;2297;51.442;6.996;2023-05-20T07:18:05;100906.38;;;16.27;39.87
4570;BME280;2297;51.442;6.996;2023-05-20T07:20:32;100917.94;;;16.26;39.12
4570;BME280;2297;51.442;6.996;2023-05-20T07:22:58;100910.88;;;16.25;39.55
4570;BME280;2297;51.442;6.996;2023-05-20T07:25:29;100909.78;;;16.30;39.92
4570;BME280;2297;51.442;6.996;2023-05-20T07:27:56;100910.22;;;16.43;39.48
4570;BME280;2297;51.442;6.996;2023-05-20T07:30:24;100905.38;;;16.55;39.36
4570;BME280;2297;51.442;6.996;2023-05-20T07:32:50;100896.09;;;16.65;39.03
4570;BME280;2297;51.442;6.996;2023-05-20T07:35:17;100892.50;;;16.66;39.33
4570;BME280;2297;51.442;6.996;2023-05-20T07:37:44;100892.28;;;16.72;39.49
4570;BME280;2297;51.442;6.996;2023-05-20T07:40:11;100888.00;;;16.68;39.54
4570;BME280;2297;51.442;6.996;2023-05-20T07:42:40;100880.50;;;16.78;39.03
4570;BME280;2297;51.442;6.996;2023-05-20T07:45:07;100879.84;;;16.96;38.78
4570;BME280;2297;51.442;6.996;2023-05-20T07:47:34;100884.31;;;16.96;38.90
4570;BME280;2297;51.442;6.996;2023-05-20T07:50:01;100884.25;;;16.98;38.45
4570;BME280;2297;51.442;6.996;2023-05-20T07:52:27;100880.59;;;17.00;38.88
4570;BME280;2297;51.442;6.996;2023-05-20T07:54:54;100881.97;;;17.10;38.85
4570;BME280;2297;51.442;6.996;2023-05-20T07:57:21;100896.81;;;17.18;39.00
4570;BME280;2297;51.442;6.996;2023-05-20T07:59:49;100887.50;;;17.28;38.38
4570;BME280;2297;51.442;6.996;2023-05-20T08:02:15;100892.53;;;17.36;38.31
4570;BME280;2297;51.442;6.996;2023-05-20T08:04:42;100886.31;;;17.35;38.26
4570;BME280;2297;51.442;6.996;2023-05-20T08:07:09;100895.75;;;17.44;38.21
4570;BME280;2297;51.442;6.996;2023-05-20T08:09:36;100889.28;;;17.50;38.00
4570;BME280;2297;51.442;6.996;2023-05-20T08:12:03;100883.81;;;17.53;38.12
4570;BME280;2297;51.442;6.996;2023-05-20T08:14:30;100888.16;;;17.55;38.04
4570;BME280;2297;51.442;6.996;2023-05-20T08:16:58;100889.50;;;17.67;38.08
4570;BME280;2297;51.442;6.996;2023-05-20T08:19:25;100875.34;;;17.65;37.99
4570;BME280;2297;51.442;6.996;2023-05-20T08:21:51;100876.25;;;17.64;37.67
4570;BME280;2297;51.442;6.996;2023-05-20T08:24:18;100870.06;;;17.63;37.79
4570;BME280;2297;51.442;6.996;2023-05-20T08:26:45;100880.56;;;17.68;37.89
4570;BME280;2297;51.442;6.996;2023-05-20T08:32:35;100877.09;;;17.87;37.62
4570;BME280;2297;51.442;6.996;2023-05-20T08:35:01;100878.72;;;17.91;37.76
4570;BME280;2297;51.442;6.996;2023-05-20T08:37:28;100880.72;;;17.86;37.81
4570;BME280;2297;51.442;6.996;2023-05-20T08:39:55;100879.72;;;17.88;37.54
4570;BME280;2297;51.442;6.996;2023-05-20T08:42:22;100864.56;;;17.89;37.52
4570;BME280;2297;51.442;6.996;2023-05-20T08:44:50;100877.84;;;17.90;37.83
4570;BME280;2297;51.442;6.996;2023-05-20T08:47:19;100871.34;;;17.53;39.16
4570;BME280;2297;51.442;6.996;2023-05-20T08:49:47;100874.56;;;17.61;38.77
4570;BME280;2297;51.442;6.996;2023-05-20T08:52:15;100865.56;;;17.64;38.43
4570;BME280;2297;51.442;6.996;2023-05-20T08:54:44;100874.16;;;17.72;38.44
4570;BME280;2297;51.442;6.996;2023-05-20T08:57:11;100872.31;;;17.74;38.57
4570;BME280;2297;51.442;6.996;2023-05-20T08:59:41;100866.69;;;18.01;37.52
4570;BME280;2297;51.442;6.996;2023-05-20T09:02:08;100869.44;;;18.00;37.35
4570;BME280;2297;51.442;6.996;2023-05-20T09:04:35;100872.31;;;18.16;37.25
4570;BME280;2297;51.442;6.996;2023-05-20T09:07:03;100878.09;;;18.25;37.29
4570;BME280;2297;51.442;6.996;2023-05-20T09:09:31;100876.69;;;18.37;37.26
4570;BME280;2297;51.442;6.996;2023-05-20T09:11:59;100873.84;;;18.42;37.66
4570;BME280;2297;51.442;6.996;2023-05-20T09:14:27;100862.16;;;18.44;37.04
4570;BME280;2297;51.442;6.996;2023-05-20T09:16:54;100863.34;;;18.58;37.08
4570;BME280;2297;51.442;6.996;2023-05-20T09:19:21;100862.75;;;18.70;36.96
4570;BME280;2297;51.442;6.996;2023-05-20T09:21:48;100871.00;;;18.85;36.91
4570;BME280;2297;51.442;6.996;2023-05-20T09:24:21;100866.81;;;18.98;36.69
4570;BME280;2297;51.442;6.996;2023-05-20T09:26:48;100871.22;;;18.80;36.68
4570;BME280;2297;51.442;6.996;2023-05-20T09:29:15;100865.66;;;18.85;36.54
4570;BME280;2297;51.442;6.996;2023-05-20T09:31:42;100874.19;;;18.93;36.61
4570;BME280;2297;51.442;6.996;2023-05-20T09:34:09;100874.06;;;18.96;36.82
4570;BME280;2297;51.442;6.996;2023-05-20T09:36:38;100870.72;;;18.91;36.47
4570;BME280;2297;51.442;6.996;2023-05-20T09:39:07;100879.97;;;18.84;37.03
4570;BME280;2297;51.442;6.996;2023-05-20T09:41:38;100875.34;;;18.87;36.49
4570;BME280;2297;51.442;6.996;2023-05-20T09:44:10;100878.09;;;18.86;36.78
4570;BME280;2297;51.442;6.996;2023-05-20T09:46:37;100871.94;;;18.84;36.35
4570;BME280;2297;51.442;6.996;2023-05-20T09:49:05;100873.63;;;18.86;36.64
4570;BME280;2297;51.442;6.996;2023-05-20T09:51:32;100872.16;;;18.98;36.74
4570;BME280;2297;51.442;6.996;2023-05-20T09:54:00;100870.16;;;19.03;36.76
4570;BME280;2297;51.442;6.996;2023-05-20T09:56:29;100859.00;;;19.12;36.57
4570;BME280;2297;51.442;6.996;2023-05-20T09:58:59;100869.94;;;19.27;36.25
4570;BME280;2297;51.442;6.996;2023-05-20T10:01:26;100867.22;;;19.08;36.11
4570;BME280;2297;51.442;6.996;2023-05-20T10:03:53;100870.72;;;18.91;36.25
4570;BME280;2297;51.442;6.996;2023-05-20T10:06:33;100872.59;;;18.89;36.26
4570;BME280;2297;51.442;6.996;2023-05-20T10:09:21;100869.72;;;18.93;36.14
4570;BME280;2297;51.442;6.996;2023-05-20T10:11:56;100862.19;;;18.83;36.24
4570;BME280;2297;51.442;6.996;2023-05-20T10:14:48;100865.44;;;18.70;36.43
4570;BME280;2297;51.442;6.996;2023-05-20T10:17:24;100859.72;;;18.78;36.42
4570;BME280;2297;51.442;6.996;2023-05-20T10:19:56;100857.56;;;18.67;36.75
4570;BME280;2297;51.442;6.996;2023-05-20T10:22:27;100851.63;;;18.79;36.58
4570;BME280;2297;51.442;6.996;2023-05-20T10:24:58;100855.31;;;18.77;36.66
4570;BME280;2297;51.442;6.996;2023-05-20T10:27:25;100853.56;;;18.76;36.68
4570;BME280;2297;51.442;6.996;2023-05-20T10:29:54;100849.63;;;18.66;37.04
4570;BME280;2297;51.442;6.996;2023-05-20T10:32:25;100853.81;;;18.71;36.98
4570;BME280;2297;51.442;6.996;2023-05-20T10:34:57;100856.25;;;18.76;36.94
4570;BME280;2297;51.442;6.996;2023-05-20T10:37:26;100856.69;;;18.86;37.03
4570;BME280;2297;51.442;6.996;2023-05-20T10:40:04;100855.66;;;18.69;37.43
4570;BME280;2297;51.442;6.996;2023-05-20T10:42:31;100853.22;;;18.84;37.44
4570;BME280;2297;51.442;6.996;2023-05-20T10:44:59;100853.22;;;18.84;37.02
4570;BME280;2297;51.442;6.996;2023-05-20T10:47:26;100843.09;;;19.09;36.74
4570;BME280;2297;51.442;6.996;2023-05-20T10:49:53;100849.63;;;19.23;36.69
4570;BME280;2297;51.442;6.996;2023-05-20T10:52:19;100839.84;;;19.22;36.67
4570;BME280;2297;51.442;6.996;2023-05-20T10:54:53;100833.31;;;19.08;36.95
4570;BME280;2297;51.442;6.996;2023-05-20T10:57:21;100838.50;;;19.11;36.89
4570;BME280;2297;51.442;6.996;2023-05-20T10:59:48;100824.34;;;19.09;36.84
4570;BME280;2297;51.442;6.996;2023-05-20T11:02:19;100832.50;;;19.06;36.82
4570;BME280;2297;51.442;6.996;2023-05-20T11:04:50;100821.69;;;19.09;36.95
4570;BME280;2297;51.442;6.996;2023-05-20T11:07:24;100824.56;;;19.05;37.18
4570;BME280;2297;51.442;6.996;2023-05-20T11:09:50;100831.06;;;19.18;37.08
4570;BME280;2297;51.442;6.996;2023-05-20T11:12:17;100835.56;;;19.18;37.20
4570;BME280;2297;51.442;6.996;2023-05-20T11:14:44;100838.44;;;19.32;36.92
4570;BME280;2297;51.442;6.996;2023-05-20T11:17:13;100831.19;;;19.34;37.06
4570;BME280;2297;51.442;6.996;2023-05-20T11:19:41;100827.88;;;19.29;36.91
4570;BME280;2297;51.442;6.996;2023-05-20T11:22:07;100828.69;;;19.31;37.33
4570;BME280;2297;51.442;6.996;2023-05-20T11:24:34;100823.97;;;19.36;37.11
4570;BME280;2297;51.442;6.996;2023-05-20T11:27:01;100826.72;;;19.35;37.18
4570;BME280;2297;51.442;6.996;2023-05-20T11:29:27;100818.75;;;19.33;37.17
4570;BME280;2297;51.442;6.996;2023-05-20T11:31:57;100815.00;;;19.37;37.16
4570;BME280;2297;51.442;6.996;2023-05-20T11:34:24;100818.88;;;19.49;37.27
4570;BME280;2297;51.442;6.996;2023-05-20T11:36:56;100815.47;;;19.63;36.90
4570;BME280;2297;51.442;6.996;2023-05-20T11:39:24;100808.84;;;19.70;36.95
4570;BME280;2297;51.442;6.996;2023-05-20T11:41:51;100812.00;;;19.78;37.11
4570;BME280;2297;51.442;6.996;2023-05-20T11:44:18;100803.03;;;19.97;36.88
4570;BME280;2297;51.442;6.996;2023-05-20T11:46:46;100800.66;;;20.08;37.11
4570;BME280;2297;51.442;6.996;2023-05-20T11:49:13;100791.28;;;20.33;36.40
4570;BME280;2297;51.442;6.996;2023-05-20T11:51:40;100784.38;;;20.45;36.24
4570;BME280;2297;51.442;6.996;2023-05-20T11:54:09;100768.75;;;20.69;36.55
4570;BME280;2297;51.442;6.996;2023-05-20T11:56:37;100773.00;;;20.73;36.05
4570;BME280;2297;51.442;6.996;2023-05-20T11:59:05;100757.84;;;20.72;35.93
4570;BME280;2297;51.442;6.996;2023-05-20T12:01:34;100753.09;;;20.77;35.86
4570;BME280;2297;51.442;6.996;2023-05-20T12:04:03;100746.59;;;20.82;35.88
4570;BME280;2297;51.442;6.996;2023-05-20T12:06:46;100752.66;;;20.69;35.95
4570;BME280;2297;51.442;6.996;2023-05-20T12:09:13;100747.63;;;20.95;35.84
4570;BME280;2297;51.442;6.996;2023-05-20T12:11:40;100741.00;;;21.17;36.03
4570;BME280;2297;51.442;6.996;2023-05-20T12:14:09;100735.25;;;21.39;35.21
4570;BME280;2297;51.442;6.996;2023-05-20T12:16:36;100735.53;;;21.34;34.97
4570;BME280;2297;51.442;6.996;2023-05-20T12:19:03;100738.47;;;21.30;34.87
4570;BME280;2297;51.442;6.996;2023-05-20T12:21:30;100730.94;;;21.36;34.49
4570;BME280;2297;51.442;6.996;2023-05-20T12:23:58;100734.38;;;21.38;34.60
4570;BME280;2297;51.442;6.996;2023-05-20T12:26:27;100732.03;;;21.32;34.64
4570;BME280;2297;51.442;6.996;2023-05-20T12:28:54;100730.88;;;21.52;34.07
4570;BME280;2297;51.442;6.996;2023-05-20T12:31:21;100731.38;;;21.59;34.31
4570;BME280;2297;51.442;6.996;2023-05-20T12:33:48;100730.47;;;21.58;34.13
4570;BME280;2297;51.442;6.996;2023-05-20T12:36:15;100738.47;;;21.60;34.35
4570;BME280;2297;51.442;6.996;2023-05-20T12:38:41;100730.19;;;21.49;34.19
4570;BME280;2297;51.442;6.996;2023-05-20T12:41:08;100735.59;;;21.33;34.01
4570;BME280;2297;51.442;6.996;2023-05-20T12:43:36;100733.44;;;21.39;33.85
4570;BME280;2297;51.442;6.996;2023-05-20T12:46:03;100732.78;;;21.50;34.13
4570;BME280;2297;51.442;6.996;2023-05-20T12:48:30;100723.31;;;21.59;34.07
4570;BME280;2297;51.442;6.996;2023-05-20T12:50:57;100721.38;;;21.75;34.20
4570;BME280;2297;51.442;6.996;2023-05-20T12:53:24;100728.41;;;21.78;33.76
4570;BME280;2297;51.442;6.996;2023-05-20T12:55:50;100735.19;;;21.55;33.91
4570;BME280;2297;51.442;6.996;2023-05-20T12:58:17;100723.88;;;21.50;33.92
4570;BME280;2297;51.442;6.996;2023-05-20T13:00:45;100730.56;;;21.57;33.56
4570;BME280;2297;51.442;6.996;2023-05-20T13:03:12;100726.75;;;21.61;33.73
4570;BME280;2297;51.442;6.996;2023-05-20T13:05:38;100725.91;;;21.75;33.70
4570;BME280;2297;51.442;6.996;2023-05-20T13:08:05;100727.16;;;21.69;33.32
4570;BME280;2297;51.442;6.996;2023-05-20T13:13:55;100710.53;;;21.48;33.45
4570;BME280;2297;51.442;6.996;2023-05-20T13:16:23;100711.41;;;21.63;33.46
4570;BME280;2297;51.442;6.996;2023-05-20T13:18:50;100708.41;;;21.68;33.19